Terminal Aerodrome Forecast
Issued by NWS

Home | Current Version | Previous Version | Text Only | Print | Product List | Glossary On
Versions: 1 2 3 4 5 6 7 8 9 10 11 12
000
FTUS43 KPAH 241120
TAFOWB
TAF
KOWB 241120Z 2412/2512 33006KT P6SM SCT250
     FM241800 32006G12KT P6SM SCT045
     FM242200 33002KT P6SM SKC=

USA.gov is the U.S. government's official web portal to all federal, state and local government web resources and services.